Gilt Edge, Tennessee
Current Conditions -  °F | °C
As of 2:50 PM on Saturday 22 Nov 2014 (Local Time) from KNQA Reporting Station
Broken Clouds Broken Clouds  
Wind Chill: 64°   Ceiling: 4800
Heat Index: 64°   Visibility: 10mi
Dew Point: 43°   Wind: 8mph
Humidity: 45%   Direction: 140°SE
Pressure: 30.08"   Gusts: NA
Location:  35.5541°N, 89.8241°W
Report Text: KNQA 222050Z 14007KT 10SM BKN048 BKN250 18/06 A3008
Loading
Personal Weather Stations






























Interactive Weather Map New forecast layout! Learn more

10-Day Weather Forecast

Advertisements
Track Severe Weather on mobile